createdAt,value
2019-06-08T00:00:07.999Z,63.08
2019-06-08T00:02:36.399Z,62.61
2019-06-08T00:05:06.547Z,62.66
2019-06-08T00:07:35.007Z,62.76
2019-06-08T00:10:06.186Z,62.49
2019-06-08T00:12:34.603Z,62.37
2019-06-08T00:15:03.470Z,62.14
2019-06-08T00:17:38.507Z,62.27
2019-06-08T00:20:02.058Z,62.42
2019-06-08T00:22:30.429Z,61.72
2019-06-08T00:24:59.005Z,61.91
2019-06-08T00:27:27.358Z,61.22
2019-06-08T00:29:55.763Z,61.56
2019-06-08T00:32:24.577Z,61.21
2019-06-08T00:34:53.155Z,61.07
2019-06-08T00:37:22.699Z,60.30
2019-06-08T00:39:51.388Z,60.37
2019-06-08T00:42:21.221Z,59.43
2019-06-08T00:44:49.678Z,59.94
2019-06-08T00:47:18.503Z,60.04
2019-06-08T00:49:46.959Z,59.29
2019-06-08T00:52:15.351Z,58.96
2019-06-08T00:54:43.749Z,59.22
2019-06-08T00:57:12.187Z,59.43
2019-06-08T00:59:40.580Z,58.72
2019-06-08T01:02:08.979Z,58.73
2019-06-08T01:04:37.422Z,58.50
2019-06-08T01:07:05.821Z,58.89
2019-06-08T01:09:34.290Z,58.99
2019-06-08T01:12:02.722Z,59.39
2019-06-08T01:14:31.162Z,59.82
2019-06-08T01:16:59.537Z,59.78
2019-06-08T01:19:29.646Z,60.09
2019-06-08T01:21:58.215Z,60.56
2019-06-08T01:24:27.832Z,60.90
2019-06-08T01:26:56.388Z,60.95
2019-06-08T01:29:26.218Z,61.57
2019-06-08T01:31:54.676Z,61.99
2019-06-08T01:34:23.085Z,62.06
2019-06-08T01:36:51.481Z,61.91
2019-06-08T01:39:21.116Z,62.44
2019-06-08T01:41:49.759Z,62.43
2019-06-08T01:44:18.150Z,62.18
2019-06-08T01:46:46.537Z,61.82
2019-06-08T01:49:15.029Z,61.38
2019-06-08T01:51:43.430Z,61.46
2019-06-08T01:54:11.837Z,61.52
2019-06-08T01:56:40.232Z,61.50
2019-06-08T01:59:08.630Z,61.64
2019-06-08T02:01:37.026Z,62.12
2019-06-08T02:04:05.519Z,61.95
2019-06-08T02:06:34.704Z,61.67
2019-06-08T02:09:04.801Z,61.52
2019-06-08T02:11:33.225Z,61.64
2019-06-08T02:14:01.634Z,61.76
2019-06-08T02:16:31.129Z,61.29
2019-06-08T02:18:59.752Z,60.44
2019-06-08T02:21:28.841Z,60.85
2019-06-08T02:23:57.310Z,60.74
2019-06-08T02:26:27.533Z,61.07
2019-06-08T02:28:56.153Z,60.39
2019-06-08T02:31:24.534Z,60.45
2019-06-08T02:33:52.971Z,60.84
2019-06-08T02:36:21.343Z,60.04
2019-06-08T02:38:49.731Z,60.50
2019-06-08T02:41:18.226Z,60.20
2019-06-08T02:43:46.776Z,60.53
2019-06-08T02:46:15.188Z,60.59
2019-06-08T02:49:02.679Z,60.71
2019-06-08T02:51:14.264Z,60.64
2019-06-08T02:53:42.718Z,60.92
2019-06-08T02:56:14.312Z,61.06
2019-06-08T02:58:43.636Z,60.92
2019-06-08T03:01:13.038Z,61.83
2019-06-08T03:03:41.995Z,61.78
2019-06-08T03:06:10.406Z,62.08
2019-06-08T03:08:41.286Z,61.98
2019-06-08T03:11:09.034Z,61.69
2019-06-08T03:13:38.413Z,61.80
2019-06-08T03:16:07.553Z,61.97
2019-06-08T03:18:38.080Z,62.20
2019-06-08T03:21:06.133Z,62.31
2019-06-08T03:23:36.166Z,62.14
2019-06-08T03:26:04.990Z,62.45
2019-06-08T03:28:35.553Z,62.68
2019-06-08T03:31:03.489Z,62.42
2019-06-08T03:33:34.606Z,62.69
2019-06-08T03:36:02.006Z,62.23
2019-06-08T03:38:30.402Z,61.87
2019-06-08T03:40:59.422Z,62.34
2019-06-08T03:43:27.808Z,62.33
2019-06-08T03:45:56.202Z,62.39
2019-06-08T03:48:24.610Z,62.76
2019-06-08T03:50:53.008Z,63.15
2019-06-08T03:53:21.403Z,62.88
2019-06-08T03:55:49.823Z,62.87
2019-06-08T03:58:18.226Z,62.89
2019-06-08T04:00:47.558Z,62.87
2019-06-08T04:03:16.762Z,62.71
2019-06-08T04:05:46.530Z,62.39
2019-06-08T04:08:15.180Z,62.35
2019-06-08T04:10:44.377Z,62.86
2019-06-08T04:13:13.710Z,62.24
2019-06-08T04:15:44.135Z,62.39
2019-06-08T04:18:12.260Z,61.79
2019-06-08T04:20:42.781Z,62.19
2019-06-08T04:23:10.777Z,61.59
2019-06-08T04:25:40.617Z,61.57
2019-06-08T04:28:09.317Z,61.78
2019-06-08T04:30:38.729Z,62.14
2019-06-08T04:33:07.226Z,61.96
2019-06-08T04:35:35.860Z,61.43
2019-06-08T04:38:04.245Z,61.72
2019-06-08T04:40:32.660Z,62.21
2019-06-08T04:43:01.067Z,61.77
2019-06-08T04:45:29.449Z,62.35
2019-06-08T04:47:57.867Z,61.99
2019-06-08T04:50:26.588Z,62.50
2019-06-08T04:52:54.974Z,63.16
2019-06-08T04:55:23.432Z,62.31
2019-06-08T04:57:51.897Z,62.58
2019-06-08T05:00:20.752Z,62.49
2019-06-08T05:02:51.130Z,62.75
2019-06-08T05:05:19.364Z,62.94
2019-06-08T05:07:49.705Z,62.90
2019-06-08T05:10:17.880Z,63.00
2019-06-08T05:12:47.695Z,63.19
2019-06-08T05:15:16.470Z,63.14
2019-06-08T05:17:45.402Z,63.09
2019-06-08T05:20:15.815Z,63.38
2019-06-08T05:22:45.565Z,63.21
2019-06-08T05:25:14.251Z,63.50
2019-06-08T05:27:43.367Z,63.78
2019-06-08T05:30:12.471Z,63.46
2019-06-08T05:32:41.414Z,63.52
2019-06-08T05:35:10.014Z,64.28
2019-06-08T05:37:39.462Z,64.40
2019-06-08T05:40:08.577Z,63.43
2019-06-08T05:42:36.979Z,63.86
2019-06-08T05:45:09.193Z,63.48
2019-06-08T05:47:37.668Z,63.39
2019-06-08T05:50:07.514Z,63.35
2019-06-08T05:52:35.927Z,63.12
2019-06-08T05:55:06.902Z,62.96
2019-06-08T05:57:35.301Z,63.22
2019-06-08T06:00:09.040Z,62.87
2019-06-08T06:02:35.616Z,63.00
2019-06-08T06:05:05.941Z,62.71
2019-06-08T06:07:35.384Z,62.76
2019-06-08T06:10:04.780Z,63.06
2019-06-08T06:12:33.180Z,62.28
2019-06-08T06:15:01.570Z,63.49
2019-06-08T06:17:29.985Z,63.05
2019-06-08T06:19:58.377Z,62.01
2019-06-08T06:22:26.760Z,61.79
2019-06-08T06:24:55.182Z,61.31
2019-06-08T06:27:23.563Z,61.18
2019-06-08T06:29:52.124Z,61.56
2019-06-08T06:32:20.553Z,61.60
2019-06-08T06:34:49.916Z,61.36
2019-06-08T06:37:18.322Z,62.38
2019-06-08T06:39:48.054Z,63.10
2019-06-08T06:42:16.520Z,62.63
2019-06-08T06:44:47.032Z,63.01
2019-06-08T06:47:15.916Z,63.64
2019-06-08T06:49:44.601Z,64.06
2019-06-08T06:52:12.934Z,64.72
2019-06-08T06:54:42.700Z,64.67
2019-06-08T06:57:11.269Z,64.14
2019-06-08T06:59:39.657Z,65.18
2019-06-08T07:02:08.078Z,65.20
2019-06-08T07:04:36.467Z,64.91
2019-06-08T07:07:04.887Z,63.74
2019-06-08T07:09:33.314Z,64.59
2019-06-08T07:12:01.711Z,64.43
2019-06-08T07:14:30.381Z,65.10
2019-06-08T07:16:58.799Z,64.87
2019-06-08T07:19:27.191Z,64.96
2019-06-08T07:21:55.590Z,64.44
2019-06-08T07:24:24.008Z,63.76
2019-06-08T07:26:52.514Z,63.41
2019-06-08T07:29:20.885Z,63.59
2019-06-08T07:31:50.309Z,62.17
2019-06-08T07:34:19.494Z,62.29
2019-06-08T07:36:49.361Z,60.82
2019-06-08T07:39:18.098Z,59.74
2019-06-08T07:41:47.437Z,60.08
2019-06-08T07:44:16.689Z,59.49
2019-06-08T07:46:45.089Z,59.31
2019-06-08T07:49:14.271Z,60.21
2019-06-08T07:51:57.622Z,59.98
2019-06-08T07:54:12.821Z,59.79
2019-06-08T07:56:41.227Z,59.32
2019-06-08T07:59:09.619Z,59.33
2019-06-08T08:01:38.058Z,59.24
2019-06-08T08:04:06.470Z,58.52
2019-06-08T08:06:34.869Z,58.51
2019-06-08T08:09:05.170Z,58.53
2019-06-08T08:11:33.583Z,57.76
2019-06-08T08:14:01.974Z,58.73
2019-06-08T08:16:30.422Z,56.20
2019-06-08T08:18:59.715Z,56.29
2019-06-08T08:21:29.546Z,55.97
2019-06-08T08:24:01.381Z,55.50
2019-06-08T08:26:31.335Z,55.53
2019-06-08T08:29:01.331Z,55.60
2019-06-08T08:31:28.763Z,56.03
2019-06-08T08:34:03.340Z,56.03
2019-06-08T08:36:29.094Z,54.49
2019-06-08T08:39:00.461Z,54.04
2019-06-08T08:41:27.970Z,54.91
2019-06-08T08:44:01.875Z,53.79
2019-06-08T08:46:28.562Z,54.68
2019-06-08T08:49:05.995Z,53.00
2019-06-08T08:51:27.903Z,53.04
2019-06-08T08:54:03.044Z,53.13
2019-06-08T08:56:28.016Z,53.31
2019-06-08T08:58:59.228Z,53.47
2019-06-08T09:01:28.765Z,53.30
2019-06-08T09:04:00.947Z,53.22
2019-06-08T09:06:27.970Z,53.41
2019-06-08T09:09:00.840Z,52.89
2019-06-08T09:11:28.788Z,53.51
2019-06-08T09:14:01.401Z,54.02
2019-06-08T09:16:28.781Z,53.71
2019-06-08T09:19:01.120Z,53.19
2019-06-08T09:21:28.101Z,54.39
2019-06-08T09:24:00.761Z,54.72
2019-06-08T09:26:28.815Z,55.04
2019-06-08T09:28:58.283Z,55.07
2019-06-08T09:31:28.074Z,55.32
2019-06-08T09:34:08.557Z,54.56
2019-06-08T09:36:28.738Z,55.61
2019-06-08T09:38:59.619Z,54.44
2019-06-08T09:41:30.837Z,53.76
2019-06-08T09:44:00.558Z,54.25
2019-06-08T09:46:28.074Z,54.19
2019-06-08T09:49:00.461Z,52.37
2019-06-08T09:51:28.507Z,52.87
2019-06-08T09:54:00.642Z,54.29
2019-06-08T09:56:28.262Z,52.56
2019-06-08T09:59:01.264Z,52.77
2019-06-08T10:01:28.592Z,51.35
2019-06-08T10:04:00.860Z,52.25
2019-06-08T10:06:27.339Z,52.45
2019-06-08T10:08:56.360Z,51.46
2019-06-08T10:11:24.935Z,51.54
2019-06-08T10:13:54.476Z,51.93
2019-06-08T10:16:23.077Z,50.08
2019-06-08T10:18:51.685Z,50.00
2019-06-08T10:21:21.058Z,49.34
2019-06-08T10:23:49.922Z,48.81
2019-06-08T10:26:18.629Z,50.58
2019-06-08T10:28:48.233Z,49.14
2019-06-08T10:31:17.642Z,49.78
2019-06-08T10:33:48.173Z,50.48
2019-06-08T10:36:18.322Z,48.69
2019-06-08T10:38:48.029Z,49.63
2019-06-08T10:41:21.093Z,49.98
2019-06-08T10:43:48.194Z,50.95
2019-06-08T10:46:20.566Z,51.57
2019-06-08T10:48:48.616Z,48.51
2019-06-08T10:51:18.377Z,49.90
2019-06-08T10:53:52.109Z,47.97
2019-06-08T10:56:18.867Z,48.73
2019-06-08T10:58:49.805Z,49.53
2019-06-08T11:01:18.819Z,49.06
2019-06-08T11:03:48.947Z,49.28
2019-06-08T11:06:18.845Z,47.95
2019-06-08T11:08:47.553Z,48.50
2019-06-08T11:11:19.597Z,48.72
2019-06-08T11:13:50.044Z,46.25
2019-06-08T11:16:18.028Z,46.71
2019-06-08T11:18:50.608Z,47.73
2019-06-08T11:21:18.740Z,48.08
2019-06-08T11:24:04.654Z,48.69
2019-06-08T11:26:20.984Z,47.78
2019-06-08T11:28:48.282Z,48.03
2019-06-08T11:31:19.520Z,46.54
2019-06-08T11:33:49.010Z,46.40
2019-06-08T11:36:18.938Z,47.41
2019-06-08T11:38:47.850Z,46.92
2019-06-08T11:41:18.985Z,47.19
2019-06-08T11:43:46.544Z,48.56
2019-06-08T11:46:18.355Z,49.46
2019-06-08T11:48:45.115Z,48.76
2019-06-08T11:51:13.502Z,47.46
2019-06-08T11:53:41.868Z,47.14
2019-06-08T11:56:13.277Z,46.66
2019-06-08T11:58:40.410Z,47.13
2019-06-08T12:01:13.288Z,47.59
2019-06-08T12:03:39.871Z,46.91
2019-06-08T12:06:10.489Z,46.41
2019-06-08T12:08:38.407Z,46.57
2019-06-08T12:11:11.591Z,47.11
2019-06-08T12:13:37.015Z,48.33
2019-06-08T12:16:05.491Z,48.56
2019-06-08T12:18:33.915Z,45.06
2019-06-08T12:21:03.698Z,45.19
2019-06-08T12:23:32.601Z,44.95
2019-06-08T12:26:01.133Z,45.51
2019-06-08T12:28:29.523Z,45.88
2019-06-08T12:31:00.871Z,47.45
2019-06-08T12:33:28.544Z,45.63
2019-06-08T12:35:58.429Z,45.57
2019-06-08T12:38:30.021Z,44.93
2019-06-08T12:40:58.725Z,46.15
2019-06-08T12:43:28.389Z,46.26
2019-06-08T12:45:58.029Z,45.05
2019-06-08T12:48:28.714Z,45.13
2019-06-08T12:50:56.791Z,44.03
2019-06-08T12:53:25.178Z,45.91
2019-06-08T12:55:53.651Z,45.87
2019-06-08T12:58:22.149Z,45.31
2019-06-08T13:00:50.643Z,46.81
2019-06-08T13:03:19.054Z,46.92
2019-06-08T13:05:47.472Z,46.64
2019-06-08T13:08:15.861Z,45.93
2019-06-08T13:10:45.109Z,45.64
2019-06-08T13:13:14.481Z,45.72
2019-06-08T13:15:43.211Z,47.18
2019-06-08T13:18:12.428Z,47.02
2019-06-08T13:20:41.772Z,46.63
2019-06-08T13:23:11.518Z,46.78
2019-06-08T13:25:43.670Z,47.02
2019-06-08T13:28:14.306Z,46.72
2019-06-08T13:30:40.265Z,47.85
2019-06-08T13:33:09.905Z,48.09
2019-06-08T13:35:39.449Z,48.51
2019-06-08T13:38:08.711Z,48.47
2019-06-08T13:40:39.794Z,47.31
2019-06-08T13:43:08.128Z,48.55
2019-06-08T13:45:39.065Z,46.36
2019-06-08T13:48:09.006Z,45.84
2019-06-08T13:50:37.065Z,46.27
2019-06-08T13:53:05.542Z,47.06
2019-06-08T13:55:48.380Z,47.20
2019-06-08T13:58:04.094Z,47.27
2019-06-08T14:00:38.433Z,45.59
2019-06-08T14:03:08.671Z,46.72
2019-06-08T14:05:38.943Z,46.21
2019-06-08T14:08:10.619Z,45.54
2019-06-08T14:10:41.569Z,47.72
2019-06-08T14:13:10.330Z,47.45
2019-06-08T14:15:38.718Z,46.13
2019-06-08T14:18:08.847Z,45.74
2019-06-08T14:20:38.564Z,46.11
2019-06-08T14:23:09.173Z,46.10
2019-06-08T14:25:47.916Z,45.96
2019-06-08T14:28:07.842Z,45.44
2019-06-08T14:30:37.730Z,46.29
2019-06-08T14:33:08.334Z,46.13
2019-06-08T14:35:36.922Z,46.59
2019-06-08T14:38:05.386Z,46.04
2019-06-08T14:40:33.811Z,46.41
2019-06-08T14:43:02.205Z,47.49
2019-06-08T14:45:31.179Z,45.46
2019-06-08T14:47:59.716Z,46.14
2019-06-08T14:50:30.735Z,46.61
2019-06-08T14:52:59.302Z,47.56
2019-06-08T14:55:33.205Z,46.66
2019-06-08T14:57:58.118Z,47.31
2019-06-08T15:00:27.809Z,46.77
2019-06-08T15:02:58.972Z,47.55
2019-06-08T15:05:30.504Z,50.91
2019-06-08T15:07:58.219Z,50.47
2019-06-08T15:10:29.399Z,55.09
2019-06-08T15:12:57.842Z,58.17
2019-06-08T15:15:28.905Z,57.54
2019-06-08T15:17:58.263Z,58.00
2019-06-08T15:20:26.755Z,57.95
2019-06-08T15:22:55.166Z,57.51
2019-06-08T15:25:24.702Z,58.13
2019-06-08T15:27:53.138Z,58.36
2019-06-08T15:30:23.004Z,57.67
2019-06-08T15:32:51.446Z,57.32
2019-06-08T15:35:21.057Z,57.42
2019-06-08T15:37:49.579Z,58.68
2019-06-08T15:40:18.275Z,58.09
2019-06-08T15:42:48.223Z,56.57
2019-06-08T15:45:18.276Z,55.52
2019-06-08T15:47:48.502Z,54.89
2019-06-08T15:50:17.953Z,54.31
2019-06-08T15:52:48.139Z,54.38
2019-06-08T15:55:19.045Z,56.20
2019-06-08T15:57:46.791Z,53.35
2019-06-08T16:00:15.355Z,53.83
2019-06-08T16:02:43.757Z,53.41
2019-06-08T16:05:12.215Z,54.04
2019-06-08T16:07:40.623Z,53.95
2019-06-08T16:10:09.652Z,53.90
2019-06-08T16:12:38.054Z,54.02
2019-06-08T16:15:08.070Z,54.45
2019-06-08T16:17:36.464Z,54.99
2019-06-08T16:20:06.100Z,54.87
2019-06-08T16:22:35.692Z,53.43
2019-06-08T16:25:06.776Z,52.99
2019-06-08T16:27:35.991Z,52.78
2019-06-08T16:30:09.495Z,51.67
2019-06-08T16:32:36.712Z,51.81
2019-06-08T16:37:33.512Z,51.32
2019-06-08T16:40:02.164Z,50.83
2019-06-08T16:42:30.564Z,50.78
2019-06-08T16:44:58.981Z,51.15
2019-06-08T16:47:27.450Z,50.83
2019-06-08T16:49:55.851Z,50.49
2019-06-08T16:52:24.286Z,50.78
2019-06-08T16:54:52.684Z,51.72
2019-06-08T16:57:21.079Z,50.36
2019-06-08T16:59:49.523Z,50.02
2019-06-08T17:02:17.958Z,49.74
2019-06-08T17:04:46.356Z,48.72
2019-06-08T17:07:14.769Z,49.57
2019-06-08T17:09:43.234Z,48.97
2019-06-08T17:12:11.782Z,50.39
2019-06-08T17:14:40.630Z,49.73
2019-06-08T17:17:09.296Z,48.30
2019-06-08T17:19:38.421Z,48.69
2019-06-08T17:22:07.076Z,48.22
2019-06-08T17:24:36.702Z,53.10
2019-06-08T17:27:05.138Z,56.44
2019-06-08T17:29:34.779Z,57.50
2019-06-08T17:32:03.297Z,58.17
2019-06-08T17:34:31.849Z,58.52
2019-06-08T17:37:00.192Z,59.20
2019-06-08T17:39:29.598Z,60.19
2019-06-08T17:41:58.038Z,60.27
2019-06-08T17:44:26.451Z,60.22
2019-06-08T17:46:54.848Z,59.41
2019-06-08T17:49:23.240Z,59.23
2019-06-08T17:51:51.656Z,58.82
2019-06-08T17:54:20.049Z,58.25
2019-06-08T17:56:48.738Z,58.31
2019-06-08T17:59:17.158Z,58.63
2019-06-08T18:01:45.555Z,57.56
2019-06-08T18:04:14.189Z,58.06
2019-06-08T18:06:43.414Z,58.01
2019-06-08T18:09:12.842Z,58.27
2019-06-08T18:11:43.540Z,57.24
2019-06-08T18:14:12.355Z,57.62
2019-06-08T18:16:42.205Z,58.27
2019-06-08T18:19:28.315Z,58.41
2019-06-08T18:22:02.940Z,58.83
2019-06-08T18:24:28.001Z,59.26
2019-06-08T18:26:59.167Z,58.98
2019-06-08T18:29:27.837Z,59.01
2019-06-08T18:31:58.194Z,59.10
2019-06-08T18:34:28.473Z,58.39
2019-06-08T18:36:57.892Z,58.46
2019-06-08T18:39:28.623Z,60.40
2019-06-08T18:41:59.101Z,59.55
2019-06-08T18:44:28.598Z,60.35
2019-06-08T18:46:57.708Z,60.29
2019-06-08T18:49:28.777Z,60.08
2019-06-08T18:51:58.331Z,59.67
2019-06-08T18:54:27.855Z,60.23
2019-06-08T18:56:56.745Z,60.12
2019-06-08T18:59:25.145Z,61.30
2019-06-08T19:01:53.545Z,62.23
2019-06-08T19:04:21.959Z,61.51
2019-06-08T19:06:50.493Z,62.17
2019-06-08T19:09:18.955Z,61.84
2019-06-08T19:11:48.707Z,62.15
2019-06-08T19:14:20.607Z,60.89
2019-06-08T19:16:54.173Z,60.60
2019-06-08T19:19:18.274Z,61.69
2019-06-08T19:21:50.229Z,61.92
2019-06-08T19:24:18.315Z,61.13
2019-06-08T19:26:47.762Z,62.06
2019-06-08T19:29:19.428Z,61.62
2019-06-08T19:31:51.163Z,61.66
2019-06-08T19:34:19.698Z,62.35
2019-06-08T19:36:54.177Z,62.04
2019-06-08T19:39:20.370Z,61.99
2019-06-08T19:41:52.837Z,61.98
2019-06-08T19:44:21.242Z,62.56
2019-06-08T19:46:52.491Z,63.11
2019-06-08T19:49:19.838Z,63.66
2019-06-08T19:51:52.456Z,64.43
2019-06-08T19:54:18.653Z,64.73
2019-06-08T19:56:49.366Z,64.86
2019-06-08T19:59:18.356Z,65.45
2019-06-08T20:01:51.394Z,66.44
2019-06-08T20:04:18.309Z,66.94
2019-06-08T20:06:48.083Z,66.14
2019-06-08T20:09:17.502Z,66.27
2019-06-08T20:11:49.420Z,66.76
2019-06-08T20:14:15.982Z,66.71
2019-06-08T20:16:44.701Z,67.39
2019-06-08T20:19:13.184Z,68.00
2019-06-08T20:21:42.822Z,68.31
2019-06-08T20:24:11.309Z,68.45
2019-06-08T20:26:39.702Z,69.00
2019-06-08T20:29:13.650Z,68.77
2019-06-08T20:31:38.980Z,69.31
2019-06-08T20:34:07.743Z,69.65
2019-06-08T20:36:37.558Z,69.99
2019-06-08T20:39:08.205Z,70.04
2019-06-08T20:41:37.626Z,70.46
2019-06-08T20:44:08.463Z,70.41
2019-06-08T20:46:37.800Z,70.51
2019-06-08T20:49:08.409Z,70.56
2019-06-08T20:51:37.501Z,70.97
2019-06-08T20:54:07.956Z,72.89
2019-06-08T20:56:37.211Z,71.74
2019-06-08T20:59:08.030Z,71.69
2019-06-08T21:01:35.854Z,69.37
2019-06-08T21:04:04.315Z,69.30
2019-06-08T21:06:32.762Z,69.87
2019-06-08T21:09:01.158Z,70.46
2019-06-08T21:11:29.884Z,71.39
2019-06-08T21:13:58.325Z,72.16
2019-06-08T21:16:27.664Z,72.33
2019-06-08T21:18:57.959Z,72.60
2019-06-08T21:21:28.345Z,72.71
2019-06-08T21:24:00.804Z,73.20
2019-06-08T21:26:26.816Z,73.47
2019-06-08T21:28:56.638Z,74.18
2019-06-08T21:31:25.627Z,73.57
2019-06-08T21:33:55.648Z,73.58
2019-06-08T21:36:24.161Z,72.49
2019-06-08T21:38:55.366Z,72.71
2019-06-08T21:41:23.087Z,73.01
2019-06-08T21:43:54.280Z,73.28
2019-06-08T21:46:21.646Z,74.25
2019-06-08T21:48:51.564Z,74.40
2019-06-08T21:51:20.167Z,74.34
2019-06-08T21:53:50.068Z,74.63
2019-06-08T21:56:18.917Z,75.97
2019-06-08T21:58:49.740Z,76.04
2019-06-08T22:01:18.098Z,75.13
2019-06-08T22:03:47.178Z,75.03
2019-06-08T22:06:17.581Z,74.44
2019-06-08T22:08:47.987Z,73.58
2019-06-08T22:11:17.691Z,73.11
2019-06-08T22:13:47.627Z,72.92
2019-06-08T22:16:16.329Z,74.21
2019-06-08T22:18:44.726Z,75.19
2019-06-08T22:21:13.136Z,77.67
2019-06-08T22:23:41.525Z,78.66
2019-06-08T22:26:09.922Z,78.65
2019-06-08T22:28:38.345Z,77.96
2019-06-08T22:31:07.962Z,76.80
2019-06-08T22:33:37.800Z,77.91
2019-06-08T22:36:08.915Z,78.27
2019-06-08T22:38:37.325Z,77.72
2019-06-08T22:41:07.868Z,76.63
2019-06-08T22:43:37.450Z,76.17
2019-06-08T22:46:08.287Z,74.91
2019-06-08T22:48:38.424Z,74.00
2019-06-08T22:51:08.124Z,73.87
2019-06-08T22:53:38.395Z,74.42
2019-06-08T22:56:07.889Z,75.59
2019-06-08T22:58:37.293Z,75.75
2019-06-08T23:01:08.680Z,76.82
2019-06-08T23:03:36.179Z,77.84
2019-06-08T23:06:06.418Z,78.01
2019-06-08T23:08:37.318Z,77.09
2019-06-08T23:11:05.720Z,76.87
2019-06-08T23:13:37.503Z,78.22
2019-06-08T23:16:06.244Z,78.28
2019-06-08T23:18:37.367Z,78.58
2019-06-08T23:21:06.596Z,77.98
2019-06-08T23:23:38.099Z,77.79
2019-06-08T23:26:10.185Z,77.48
2019-06-08T23:28:37.697Z,75.78
2019-06-08T23:31:19.728Z,76.03
2019-06-08T23:33:38.702Z,76.79
2019-06-08T23:36:39.260Z,76.67
2019-06-08T23:38:37.682Z,77.00
2019-06-08T23:41:08.716Z,77.51
2019-06-08T23:43:38.317Z,78.17
2019-06-08T23:46:06.323Z,78.59
2019-06-08T23:48:37.299Z,78.46
2019-06-08T23:51:07.738Z,78.55
2019-06-08T23:53:34.982Z,78.97
2019-06-08T23:56:04.332Z,79.03
2019-06-08T23:58:33.682Z,78.84
